createdAt,value
2022-12-25T00:02:05.532Z,100830.44
2022-12-25T00:05:09.627Z,100833.84
2022-12-25T00:08:12.321Z,100845.59
2022-12-25T00:11:18.195Z,100848.06
2022-12-25T00:14:21.104Z,100850.72
2022-12-25T00:17:23.939Z,100846.41
2022-12-25T00:20:26.513Z,100842.91
2022-12-25T00:23:30.193Z,100857.25
2022-12-25T00:26:32.821Z,100865.13
2022-12-25T00:29:36.063Z,100859.28
2022-12-25T00:32:38.675Z,100873.84
2022-12-25T00:35:41.736Z,100874.06
2022-12-25T00:38:45.529Z,100876.78
2022-12-25T00:42:07.015Z,100890.63
2022-12-25T00:45:10.027Z,100887.41
2022-12-25T00:48:12.881Z,100890.13
2022-12-25T00:51:15.526Z,100882.56
2022-12-25T00:54:18.643Z,100892.13
2022-12-25T00:57:21.318Z,100906.84
2022-12-25T01:00:24.533Z,100894.94
2022-12-25T01:03:27.816Z,100888.25
2022-12-25T01:06:31.206Z,100901.16
2022-12-25T01:09:52.541Z,100900.28
2022-12-25T01:12:55.466Z,100905.94
2022-12-25T01:15:58.476Z,100909.19
2022-12-25T01:19:01.740Z,100904.09
2022-12-25T01:22:04.342Z,100907.38
2022-12-25T01:25:09.094Z,100907.50
2022-12-25T01:28:11.675Z,100920.50
2022-12-25T01:31:17.212Z,100931.81
2022-12-25T01:34:19.801Z,100936.25
2022-12-25T01:37:24.727Z,100917.47
2022-12-25T01:40:27.455Z,100921.91
2022-12-25T01:43:32.322Z,100931.31
2022-12-25T01:46:36.295Z,100936.53
2022-12-25T01:49:42.456Z,100948.53
2022-12-25T01:52:46.351Z,100924.53
2022-12-25T01:55:53.972Z,100921.97
2022-12-25T01:58:58.285Z,100922.84
2022-12-25T02:02:01.455Z,100919.41
2022-12-25T02:05:14.323Z,100936.47
2022-12-25T02:08:20.555Z,100927.84
2022-12-25T02:11:42.205Z,100918.37
2022-12-25T02:14:45.861Z,100920.94
2022-12-25T02:18:03.793Z,100918.41
2022-12-25T02:21:15.627Z,100921.03
2022-12-25T02:24:33.563Z,100921.09
2022-12-25T02:28:05.491Z,100917.56
2022-12-25T02:31:22.384Z,100922.84
2022-12-25T02:34:57.153Z,100928.00
2022-12-25T02:38:11.362Z,100940.91
2022-12-25T02:41:16.723Z,100949.53
2022-12-25T02:44:41.874Z,100947.91
2022-12-25T02:48:03.252Z,100945.31
2022-12-25T02:51:28.905Z,100951.31
2022-12-25T02:54:55.054Z,100955.47
2022-12-25T02:58:21.345Z,100943.41
2022-12-25T03:01:47.448Z,100955.47
2022-12-25T03:05:11.761Z,100964.09
2022-12-25T03:08:19.816Z,100966.75
2022-12-25T03:11:32.711Z,100965.87
2022-12-25T03:14:54.048Z,100972.75
2022-12-25T03:18:01.517Z,100976.16
2022-12-25T03:21:23.249Z,100979.63
2022-12-25T03:24:44.674Z,100978.81
2022-12-25T03:27:51.646Z,100974.56
2022-12-25T03:31:30.145Z,100975.44
2022-12-25T03:35:01.790Z,100979.81
2022-12-25T03:38:47.551Z,101002.06
2022-12-25T03:42:14.185Z,100997.72
2022-12-25T03:46:13.350Z,100995.06
2022-12-25T03:50:11.729Z,100998.50
2022-12-25T03:53:43.187Z,100998.56
2022-12-25T03:57:05.033Z,100997.66
2022-12-25T04:00:27.069Z,101003.66
2022-12-25T04:03:48.571Z,101014.03
2022-12-25T04:07:09.435Z,101009.87
2022-12-25T04:10:30.827Z,101008.19
2022-12-25T04:14:00.512Z,101012.47
2022-12-25T04:17:21.927Z,100992.69
2022-12-25T04:20:46.058Z,100999.37
2022-12-25T04:24:07.604Z,101006.19
2022-12-25T04:27:28.540Z,101007.94
2022-12-25T04:30:50.512Z,101007.16
2022-12-25T04:34:11.645Z,101007.13
2022-12-25T04:37:14.651Z,101002.75
2022-12-25T04:40:17.442Z,101007.09
2022-12-25T04:43:20.278Z,100989.13
2022-12-25T04:46:22.955Z,101003.75
2022-12-25T04:49:26.306Z,100988.41
2022-12-25T04:52:29.096Z,100994.44
2022-12-25T04:55:31.979Z,101010.72
2022-12-25T04:58:34.962Z,101007.34
2022-12-25T05:01:37.881Z,101013.44
2022-12-25T05:04:40.466Z,101019.59
2022-12-25T05:07:43.347Z,101016.22
2022-12-25T05:10:46.164Z,101018.00
2022-12-25T05:13:49.053Z,101010.28
2022-12-25T05:16:51.773Z,101019.75
2022-12-25T05:19:54.796Z,101036.81
2022-12-25T05:22:57.447Z,101030.91
2022-12-25T05:26:07.245Z,101038.62
2022-12-25T05:29:12.565Z,101013.88
2022-12-25T05:32:15.411Z,101019.87
2022-12-25T05:35:17.910Z,101025.88
2022-12-25T05:38:20.830Z,101028.47
2022-12-25T05:41:23.383Z,101028.47
2022-12-25T05:44:26.206Z,101034.44
2022-12-25T05:47:28.791Z,101029.38
2022-12-25T05:50:31.851Z,101036.22
2022-12-25T05:53:40.154Z,101040.53
2022-12-25T05:56:43.071Z,101047.37
2022-12-25T05:59:45.606Z,101052.47
2022-12-25T06:02:48.733Z,101054.19
2022-12-25T06:05:52.554Z,101049.91
2022-12-25T06:08:55.443Z,101049.97
2022-12-25T06:11:58.447Z,101052.53
2022-12-25T06:15:00.980Z,101053.38
2022-12-25T06:18:04.257Z,101055.97
2022-12-25T06:21:12.121Z,101052.56
2022-12-25T06:24:20.979Z,101047.44
2022-12-25T06:27:24.653Z,101048.31
2022-12-25T06:30:27.787Z,101056.84
2022-12-25T06:33:30.882Z,101058.56
2022-12-25T06:36:33.950Z,101071.37
2022-12-25T06:39:36.483Z,101070.53
2022-12-25T06:42:39.494Z,101059.44
2022-12-25T06:45:42.190Z,101058.59
2022-12-25T06:48:49.399Z,101069.66
2022-12-25T06:51:52.163Z,101073.09
2022-12-25T06:54:55.035Z,101074.81
2022-12-25T06:57:57.573Z,101078.22
2022-12-25T07:01:00.673Z,101091.91
2022-12-25T07:04:06.535Z,101087.63
2022-12-25T07:07:10.114Z,101097.87
2022-12-25T07:10:12.956Z,101100.41
2022-12-25T07:13:16.228Z,101102.13
2022-12-25T07:16:19.154Z,101103.81
2022-12-25T07:19:22.242Z,101116.66
2022-12-25T07:22:25.047Z,101121.75
2022-12-25T07:25:30.884Z,101137.12
2022-12-25T07:28:38.692Z,101143.97
2022-12-25T07:31:41.794Z,101137.97
2022-12-25T07:34:44.809Z,101143.97
2022-12-25T07:37:47.787Z,101145.69
2022-12-25T07:40:50.341Z,101144.81
2022-12-25T07:43:54.279Z,101149.91
2022-12-25T07:46:56.869Z,101151.56
2022-12-25T07:49:59.833Z,101156.66
2022-12-25T07:53:03.419Z,101153.22
2022-12-25T07:56:08.079Z,101160.88
2022-12-25T07:59:10.679Z,101173.69
2022-12-25T08:02:13.699Z,101169.31
2022-12-25T08:05:17.062Z,101176.06
2022-12-25T08:08:19.789Z,101173.50
2022-12-25T08:11:23.613Z,101181.25
2022-12-25T08:14:26.393Z,101185.53
2022-12-25T08:17:29.317Z,101182.94
2022-12-25T08:20:31.910Z,101184.66
2022-12-25T08:23:37.502Z,101179.47
2022-12-25T08:26:40.105Z,101180.34
2022-12-25T08:29:44.631Z,101180.34
2022-12-25T08:32:47.434Z,101187.19
2022-12-25T08:35:50.405Z,101188.88
2022-12-25T08:38:57.004Z,101191.34
2022-12-25T08:42:03.718Z,101198.19
2022-12-25T08:45:06.771Z,101199.00
2022-12-25T08:48:09.622Z,101206.72
2022-12-25T08:51:15.217Z,101203.25
2022-12-25T08:54:18.148Z,101198.03
2022-12-25T08:57:20.724Z,101202.19
2022-12-25T09:00:23.896Z,101208.88
2022-12-25T09:03:26.984Z,101211.28
2022-12-25T09:06:29.929Z,101206.03
2022-12-25T09:09:32.549Z,101207.56
2022-12-25T09:12:36.132Z,101204.78
2022-12-25T09:15:39.550Z,101202.84
2022-12-25T09:18:43.055Z,101204.31
2022-12-25T09:21:46.061Z,101199.69
2022-12-25T09:24:49.101Z,101198.72
2022-12-25T09:27:51.721Z,101203.97
2022-12-25T09:30:54.987Z,101205.81
2022-12-25T09:33:58.274Z,101198.94
2022-12-25T09:37:02.065Z,101193.69
2022-12-25T09:40:05.243Z,101203.66
2022-12-25T09:43:15.951Z,101207.16
2022-12-25T09:46:25.007Z,101214.16
2022-12-25T09:49:38.961Z,101211.62
2022-12-25T09:53:02.832Z,101208.03
2022-12-25T09:56:25.934Z,101199.19
2022-12-25T09:59:28.595Z,101199.81
2022-12-25T10:02:53.458Z,101198.41
2022-12-25T10:06:22.558Z,101199.09
2022-12-25T10:09:25.158Z,101201.47
2022-12-25T10:12:44.041Z,101197.75
2022-12-25T10:16:02.815Z,101202.00
2022-12-25T10:19:24.686Z,101194.66
2022-12-25T10:22:40.481Z,101192.72
2022-12-25T10:25:44.871Z,101189.87
2022-12-25T10:29:09.627Z,101187.81
2022-12-25T10:32:13.393Z,101189.94
2022-12-25T10:35:18.965Z,101183.03
2022-12-25T10:38:21.838Z,101181.44
2022-12-25T10:42:00.056Z,101174.28
2022-12-25T10:45:08.383Z,101181.81
2022-12-25T10:48:25.051Z,101183.44
2022-12-25T10:51:31.324Z,101179.31
2022-12-25T10:54:36.096Z,101179.16
2022-12-25T10:57:46.120Z,101175.56
2022-12-25T11:00:58.411Z,101182.94
2022-12-25T11:04:01.393Z,101179.97
2022-12-25T11:07:18.944Z,101172.06
2022-12-25T11:10:32.660Z,101163.78
2022-12-25T11:13:40.731Z,101162.81
2022-12-25T11:16:43.606Z,101150.88
2022-12-25T11:19:53.591Z,101148.44
2022-12-25T11:22:56.541Z,101153.59
2022-12-25T11:26:05.774Z,101155.13
2022-12-25T11:29:24.618Z,101148.66
2022-12-25T11:32:48.824Z,101146.56
2022-12-25T11:35:55.104Z,101138.28
2022-12-25T11:39:09.913Z,101133.62
2022-12-25T11:42:34.865Z,101135.72
2022-12-25T11:45:49.172Z,101140.69
2022-12-25T11:49:00.601Z,101138.31
2022-12-25T11:52:06.613Z,101140.72
2022-12-25T11:55:21.666Z,101137.84
2022-12-25T11:58:53.104Z,101136.16
2022-12-25T12:02:05.153Z,101131.72
2022-12-25T12:05:17.770Z,101130.50
2022-12-25T12:08:20.382Z,101133.09
2022-12-25T12:11:38.998Z,101126.59
2022-12-25T12:14:45.168Z,101131.31
2022-12-25T12:17:48.039Z,101116.25
2022-12-25T12:21:08.623Z,101124.84
2022-12-25T12:24:20.874Z,101129.03
2022-12-25T12:27:29.652Z,101133.28
2022-12-25T12:30:35.551Z,101132.56
2022-12-25T12:33:43.980Z,101129.84
2022-12-25T12:36:47.007Z,101131.22
2022-12-25T12:39:53.859Z,101129.03
2022-12-25T12:42:57.166Z,101126.31
2022-12-25T12:46:05.540Z,101125.31
2022-12-25T12:49:10.044Z,101121.94
2022-12-25T12:52:45.455Z,101132.16
2022-12-25T12:55:48.450Z,101131.03
2022-12-25T12:58:51.219Z,101133.72
2022-12-25T13:02:16.906Z,101134.84
2022-12-25T13:05:35.115Z,101141.69
2022-12-25T13:08:50.327Z,101143.56
2022-12-25T13:11:53.003Z,101141.87
2022-12-25T13:14:56.208Z,101150.00
2022-12-25T13:18:04.125Z,101143.56
2022-12-25T13:21:07.478Z,101143.06
2022-12-25T13:24:24.852Z,101148.84
2022-12-25T13:27:31.202Z,101144.53
2022-12-25T13:30:34.243Z,101139.88
2022-12-25T13:33:37.852Z,101139.88
2022-12-25T13:36:40.503Z,101141.72
2022-12-25T13:39:59.163Z,101143.06
2022-12-25T13:43:02.069Z,101141.13
2022-12-25T13:46:05.150Z,101144.41
2022-12-25T13:49:17.439Z,101138.22
2022-12-25T13:52:32.370Z,101140.22
2022-12-25T13:55:35.168Z,101152.56
2022-12-25T13:58:39.509Z,101156.88
2022-12-25T14:01:43.753Z,101155.47
2022-12-25T14:04:46.752Z,101151.22
2022-12-25T14:07:53.652Z,101151.50
2022-12-25T14:10:57.451Z,101143.97
2022-12-25T14:14:05.290Z,101138.97
2022-12-25T14:17:11.458Z,101145.63
2022-12-25T14:20:30.173Z,101150.53
2022-12-25T14:23:46.859Z,101158.56
2022-12-25T14:27:07.609Z,101150.56
2022-12-25T14:30:12.962Z,101153.53
2022-12-25T14:33:19.711Z,101159.84
2022-12-25T14:36:22.678Z,101166.03
2022-12-25T14:39:37.144Z,101161.31
2022-12-25T14:42:40.235Z,101165.91
2022-12-25T14:45:42.940Z,101169.88
2022-12-25T14:48:45.835Z,101170.56
2022-12-25T14:51:48.540Z,101170.91
2022-12-25T14:54:59.977Z,101169.16
2022-12-25T14:58:05.363Z,101169.47
2022-12-25T15:01:21.031Z,101181.59
2022-12-25T15:04:26.190Z,101176.75
2022-12-25T15:07:31.353Z,101175.28
2022-12-25T15:13:58.379Z,101169.22
2022-12-25T15:17:01.693Z,101167.34
2022-12-25T15:20:06.435Z,101179.81
2022-12-25T15:23:19.728Z,101182.75
2022-12-25T15:26:23.690Z,101172.66
2022-12-25T15:29:59.705Z,101181.00
2022-12-25T15:32:49.021Z,101172.69
2022-12-25T15:35:51.981Z,101180.06
2022-12-25T15:38:55.039Z,101171.69
2022-12-25T15:42:13.643Z,101181.63
2022-12-25T15:45:25.801Z,101179.06
2022-12-25T15:48:28.687Z,101185.87
2022-12-25T15:51:31.866Z,101185.06
2022-12-25T15:54:34.650Z,101179.06
2022-12-25T15:57:41.381Z,101182.53
2022-12-25T16:00:44.133Z,101180.06
2022-12-25T16:03:47.787Z,101180.06
2022-12-25T16:06:51.899Z,101177.59
2022-12-25T16:09:54.828Z,101181.97
2022-12-25T16:12:57.457Z,101187.22
2022-12-25T16:16:01.848Z,101191.50
2022-12-25T16:19:05.293Z,101182.69
2022-12-25T16:22:20.408Z,101180.50
2022-12-25T16:25:24.043Z,101182.25
2022-12-25T16:28:26.936Z,101171.84
2022-12-25T16:31:29.621Z,101169.97
2022-12-25T16:34:32.559Z,101171.72
2022-12-25T16:37:35.676Z,101172.56
2022-12-25T16:40:38.639Z,101163.25
2022-12-25T16:43:41.286Z,101162.37
2022-12-25T16:46:44.473Z,101159.84
2022-12-25T16:49:47.422Z,101163.38
2022-12-25T16:52:50.334Z,101160.03
2022-12-25T16:55:52.859Z,101158.31
2022-12-25T16:58:57.653Z,101166.97
2022-12-25T17:02:00.700Z,101161.06
2022-12-25T17:05:03.721Z,101150.97
2022-12-25T17:08:06.641Z,101152.91
2022-12-25T17:11:10.821Z,101150.56
2022-12-25T17:14:13.441Z,101155.87
2022-12-25T17:17:16.253Z,101157.62
2022-12-25T17:20:18.950Z,101161.63
2022-12-25T17:23:21.952Z,101156.69
2022-12-25T17:26:24.613Z,101158.50
2022-12-25T17:29:27.672Z,101162.91
2022-12-25T17:32:30.291Z,101153.56
2022-12-25T17:35:36.301Z,101145.13
2022-12-25T17:38:39.499Z,101142.53
2022-12-25T17:41:42.417Z,101134.12
2022-12-25T17:44:44.966Z,101125.63
2022-12-25T17:47:47.800Z,101117.75
2022-12-25T17:50:50.389Z,101123.84
2022-12-25T17:53:56.668Z,101127.22
2022-12-25T17:56:59.331Z,101131.78
2022-12-25T18:00:02.507Z,101130.78
2022-12-25T18:03:11.626Z,101137.00
2022-12-25T18:06:17.717Z,101143.28
2022-12-25T18:09:20.328Z,101140.75
2022-12-25T18:12:23.231Z,101141.50
2022-12-25T18:15:25.876Z,101138.25
2022-12-25T18:18:29.398Z,101141.84
2022-12-25T18:21:32.341Z,101140.44
2022-12-25T18:24:35.201Z,101143.16
2022-12-25T18:27:37.768Z,101136.38
2022-12-25T18:30:41.929Z,101121.84
2022-12-25T18:33:45.752Z,101111.69
2022-12-25T18:36:48.973Z,101122.16
2022-12-25T18:39:51.649Z,101123.03
2022-12-25T18:43:01.075Z,101121.09
2022-12-25T18:46:09.108Z,101113.25
2022-12-25T18:49:12.261Z,101115.84
2022-12-25T18:52:49.020Z,101117.53
2022-12-25T18:55:40.667Z,101120.00
2022-12-25T18:58:43.778Z,101114.84
2022-12-25T19:01:46.925Z,101113.25
2022-12-25T19:04:49.646Z,101109.00
2022-12-25T19:07:52.616Z,101109.72
2022-12-25T19:10:55.274Z,101105.38
2022-12-25T19:13:58.629Z,101102.69
2022-12-25T19:17:01.477Z,101097.41
2022-12-25T19:20:06.075Z,101096.56
2022-12-25T19:23:09.165Z,101096.44
2022-12-25T19:26:12.290Z,101100.66
2022-12-25T19:29:14.909Z,101105.03
2022-12-25T19:32:17.900Z,101104.81
2022-12-25T19:35:20.586Z,101104.84
2022-12-25T19:38:23.485Z,101099.59
2022-12-25T19:41:26.376Z,101105.63
2022-12-25T19:44:29.823Z,101117.69
2022-12-25T19:47:32.669Z,101117.75
2022-12-25T19:50:35.709Z,101103.06
2022-12-25T19:53:38.886Z,101093.50
2022-12-25T19:56:42.444Z,101090.91
2022-12-25T19:59:45.125Z,101096.06
2022-12-25T20:02:48.090Z,101081.56
2022-12-25T20:05:51.773Z,101072.00
2022-12-25T20:09:01.338Z,101052.91
2022-12-25T20:12:04.474Z,101045.03
2022-12-25T20:15:07.821Z,101035.38
2022-12-25T20:18:10.807Z,101053.81
2022-12-25T20:21:16.016Z,101056.41
2022-12-25T20:24:18.855Z,101070.13
2022-12-25T20:27:21.502Z,101079.50
2022-12-25T20:30:24.356Z,101079.69
2022-12-25T20:33:27.862Z,101071.22
2022-12-25T20:36:36.298Z,101058.53
2022-12-25T20:39:40.131Z,101056.91
2022-12-25T20:42:43.458Z,101051.75
2022-12-25T20:45:46.061Z,101051.84
2022-12-25T20:48:48.959Z,101056.84
2022-12-25T20:51:51.697Z,101059.41
2022-12-25T20:54:54.681Z,101055.94
2022-12-25T20:57:57.777Z,101064.37
2022-12-25T21:01:05.256Z,101049.47
2022-12-25T21:04:12.913Z,101057.94
2022-12-25T21:07:18.836Z,101060.53
2022-12-25T21:10:21.405Z,101062.06
2022-12-25T21:13:25.016Z,101054.31
2022-12-25T21:16:28.094Z,101054.31
2022-12-25T21:19:31.039Z,101043.53
2022-12-25T21:22:33.742Z,101048.94
2022-12-25T21:25:36.648Z,101045.41
2022-12-25T21:28:39.271Z,101055.84
2022-12-25T21:32:01.057Z,101057.44
2022-12-25T21:35:03.896Z,101052.28
2022-12-25T21:38:07.130Z,101034.84
2022-12-25T21:41:11.859Z,101042.59
2022-12-25T21:44:14.946Z,101037.56
2022-12-25T21:47:17.645Z,101036.53
2022-12-25T21:50:39.583Z,101034.00
2022-12-25T21:53:42.200Z,101036.28
2022-12-25T21:56:47.301Z,101049.50
2022-12-25T21:59:49.826Z,101048.56
2022-12-25T22:02:52.957Z,101058.06
2022-12-25T22:06:21.691Z,101069.41
2022-12-25T22:09:25.033Z,101067.78
2022-12-25T22:12:46.759Z,101066.94
2022-12-25T22:16:08.103Z,101069.50
2022-12-25T22:19:29.432Z,101055.03
2022-12-25T22:22:32.159Z,101063.00
2022-12-25T22:25:34.972Z,101062.16
2022-12-25T22:28:37.616Z,101065.62
2022-12-25T22:31:46.497Z,101042.47
2022-12-25T22:34:49.595Z,101041.59
2022-12-25T22:37:54.057Z,101049.34
2022-12-25T22:40:57.076Z,101046.66
2022-12-25T22:44:16.947Z,101050.19
2022-12-25T22:47:20.127Z,101055.25
2022-12-25T22:50:23.291Z,101055.28
2022-12-25T22:53:25.831Z,101061.44
2022-12-25T22:56:28.710Z,101055.44
2022-12-25T22:59:32.891Z,101048.44
2022-12-25T23:02:36.006Z,101043.31
2022-12-25T23:05:38.760Z,101043.19
2022-12-25T23:08:41.649Z,101029.50
2022-12-25T23:11:45.627Z,101034.59
2022-12-25T23:14:48.494Z,101046.78
2022-12-25T23:18:09.761Z,101059.69
2022-12-25T23:21:33.186Z,101042.44
2022-12-25T23:24:54.712Z,101033.06
2022-12-25T23:27:57.590Z,101037.37
2022-12-25T23:31:00.235Z,101034.69
2022-12-25T23:34:04.912Z,101042.44
2022-12-25T23:37:07.874Z,101032.97
2022-12-25T23:40:11.325Z,101025.22
2022-12-25T23:43:13.932Z,101012.31
2022-12-25T23:46:17.335Z,101016.75
2022-12-25T23:49:21.287Z,101022.03
2022-12-25T23:52:24.409Z,101022.94
2022-12-25T23:55:27.166Z,101012.75
2022-12-25T23:58:30.135Z,101012.84
